Northeast Iowa Regional Airport
KCCY : now visible

Airfield :











YOU CAN JOIN US ON...

 
LOGIN :

Register | Disclaimer

   EN    FR    IT 

 









Legend :    VFR   Marginal VFR   IFR   Intensive IFR   Very Intensive IFR
Visi :
Ceiling :
>= 8 km
>= 3000ft
5 to 8 km
1000 to 3000 ft
1500m to 5 km
500 to 1000 ft
800 to 1500m
200 to 500 ft
< 800m
< 200 ft
Symbols :   Thunderstorms  Fog  Heavy snow  Heavy precipitations  Wind > 20 kt






- Airport Elevation : 1125 ft


KCCY - Northeast Iowa Regional

CURRENT METAR :
  • 221255Z AUTO 36007G12KT 10SM OVC013 M06/M08 A3023 RMK AO2

EXPIRED METARs :
  • 221235Z AUTO 35010KT 10SM OVC013 M06/M08 A3022 RMK AO2
  • 221215Z AUTO 35008G14KT 10SM OVC013 M06/M08 A3021 RMK AO2
  • 221155Z AUTO 34010KT 10SM OVC013 M06/M08 A3021 RMK AO2
  • 221135Z AUTO 36010KT 10SM OVC014 M06/M08 A3021 RMK AO2
  • 221115Z AUTO 35008KT 10SM OVC014 M05/M07 A3020 RMK AO2
  • 221055Z AUTO 35008G14KT 10SM OVC014 M05/M07 A3020 RMK AO2
  • 221035Z AUTO 33008G14KT 10SM OVC015 M05/M08 A3021 RMK AO2

TAF N/A



MET'MAP, your aeronautical weather chart ! - Copyright ORBIFLY December 2007 - Disclaimer

ORBIFLY MET'MAP TEAM :

Programming & Development : Alexandra Zaïnal
Concept & Development : Baudouin d'Aumeries
Co-Development & Prog : Marc-Olivier Méhu
Technical & hardware support : Manuel Goepfert

Contact : metmap@orbifly.com




SOURCES & CREDITS :

   NOAA       Earth
Advisory